College Station, TX (77840)

5:18 AM CDT on March 24, 2017 (GMT -0500)
The Knoll | | Change Station
Active Advisory: Wind Advisory

Elev 318 ft 30.60 °N, 96.32 °W | Updated 8 seconds ago

Scattered Clouds
Scattered Clouds
68.2 °F
Feels Like 68.2 °F
N
2.2
Wind Variable Wind from SW
Gusts 7.6 mph

Today
High -- | Low -- °F
--% Chance of Precip.
Yesterday
High -- | Low -- °F
Precip. -- in
Pressure 29.90 in
Visibility 10.0 miles
Clouds Scattered Clouds 1800 ft
Dew Point 64 °F
Humidity 85%
Rainfall 0.00 in
Snow Depth Not available.
7:23 AM 7:39 PM
Waning Crescent, 16% visible
SPECI KCLL 241011Z AUTO 16018G25KT 10SM SCT018 20/17 A2990 RMK AO2 PK WND 16026/1000 T02000172
Pressure 29.90 in
Visibility 10.0 miles
Clouds Scattered Clouds 1800 ft
Dew Point 64 °F
Humidity 85%
Rainfall 0.00 in
Snow Depth Not available.
7:23 AM 7:39 PM
Waning Crescent, 16% visible
SPECI KCLL 241011Z AUTO 16018G25KT 10SM SCT018 20/17 A2990 RMK AO2 PK WND 16026/1000 T02000172

Get Your Daily Forecast Email!

Thanks for signing up!

Be on the lookout for a verification email in your inbox.

You'll start receiving severe weather alerts in your inbox..

×

10-Day Weather Forecast

Almanac

Astronomy

Mar. 24, 2017 Rise Set
Actual Time
Civil Twilight
Nautical Twilight
Astronomical Twilight
Moon
Length of Visible Light
Length of Day
Tomorrow will be .
, % of the Moon is Illuminated

Today's Extremes

State Highs State Lows

Community

WunderPhotos

Upload Photos

1,962,540 photos uploaded!

WunderBlog® & News

Nearby

Air Quality

  Air Quality AQ Index Pollutant
Not available.

Snow Depth

Station Depth Elevation

Earthquake Activity

City Distance Mag. Time & Date
Minimum magnitude displayed is 2.5.

Earthquake Activity

City Distance Mag. Time & Date
Minimum magnitude displayed is 2.5.

Coastal Water Temperatures

Place Temperature

Stations

Nearby Weather Stations

Station Location Temp. Windchill Dew Point Humidity Wind Precip. Elev Updated Type
                   

Watches & Warnings

Wind Advisory
Issued: 4:25 AM CDT Mar. 24, 2017 – National Weather Service

... Wind Advisory in effect until 4 PM CDT this afternoon...

The National Weather Service in Houston/Galveston has issued a
Wind Advisory, which is in effect until 4 PM CDT this afternoon.

* Event... strong south winds between 20 and 30 mph.

* Timing... through mid-afternoon.

* Impact... unsecured light weight items could be tossed about by
strong winds. Drivers on east west oriented roads should prepare
for strong cross winds and drivers of high profile vehicles
should be particularly cautious.

Precautionary/preparedness actions...

Drivers of vans... campers... trailers... and other high-profile
vehicles should be alert to the danger of these winds...
especially when driving along east to west oriented roads